sensor_id;sensor_type;location;lat;lon;timestamp;P1;durP1;ratioP1;P2;durP2;ratioP2
29848;SDS011;16728;50.832;5.590;2023-01-15T00:00:38;2.05;;;0.88;;
29848;SDS011;16728;50.832;5.590;2023-01-15T00:03:40;4.35;;;0.77;;
29848;SDS011;16728;50.832;5.590;2023-01-15T00:06:42;4.32;;;0.80;;
29848;SDS011;16728;50.832;5.590;2023-01-15T00:09:45;4.55;;;1.00;;
29848;SDS011;16728;50.832;5.590;2023-01-15T00:12:47;1.95;;;1.13;;
29848;SDS011;16728;50.832;5.590;2023-01-15T00:15:49;2.38;;;1.30;;
29848;SDS011;16728;50.832;5.590;2023-01-15T00:19:00;3.10;;;1.10;;
29848;SDS011;16728;50.832;5.590;2023-01-15T00:22:04;3.08;;;0.90;;
29848;SDS011;16728;50.832;5.590;2023-01-15T00:25:08;1.58;;;0.70;;
29848;SDS011;16728;50.832;5.590;2023-01-15T00:28:32;3.40;;;0.90;;
29848;SDS011;16728;50.832;5.590;2023-01-15T00:31:34;2.83;;;1.02;;
29848;SDS011;16728;50.832;5.590;2023-01-15T00:34:37;3.63;;;0.93;;
29848;SDS011;16728;50.832;5.590;2023-01-15T00:37:39;4.40;;;1.05;;
29848;SDS011;16728;50.832;5.590;2023-01-15T00:43:46;5.95;;;1.02;;
29848;SDS011;16728;50.832;5.590;2023-01-15T00:46:48;3.42;;;1.00;;
29848;SDS011;16728;50.832;5.590;2023-01-15T00:49:50;2.72;;;1.08;;
29848;SDS011;16728;50.832;5.590;2023-01-15T00:52:53;3.03;;;0.90;;
29848;SDS011;16728;50.832;5.590;2023-01-15T00:55:55;4.85;;;1.23;;
29848;SDS011;16728;50.832;5.590;2023-01-15T00:58:59;1.92;;;1.00;;
29848;SDS011;16728;50.832;5.590;2023-01-15T01:02:02;2.40;;;1.02;;
29848;SDS011;16728;50.832;5.590;2023-01-15T01:05:04;3.10;;;1.00;;
29848;SDS011;16728;50.832;5.590;2023-01-15T01:08:06;3.72;;;1.00;;
29848;SDS011;16728;50.832;5.590;2023-01-15T01:11:09;3.00;;;1.02;;
29848;SDS011;16728;50.832;5.590;2023-01-15T01:14:13;1.92;;;1.00;;
29848;SDS011;16728;50.832;5.590;2023-01-15T01:17:18;1.77;;;0.70;;
29848;SDS011;16728;50.832;5.590;2023-01-15T01:20:22;3.50;;;1.05;;
29848;SDS011;16728;50.832;5.590;2023-01-15T01:23:27;2.50;;;0.75;;
29848;SDS011;16728;50.832;5.590;2023-01-15T01:26:30;2.88;;;0.75;;
29848;SDS011;16728;50.832;5.590;2023-01-15T01:29:32;3.90;;;1.13;;
29848;SDS011;16728;50.832;5.590;2023-01-15T01:32:34;3.42;;;0.90;;
29848;SDS011;16728;50.832;5.590;2023-01-15T01:35:36;3.67;;;0.90;;
29848;SDS011;16728;50.832;5.590;2023-01-15T01:38:38;3.67;;;1.42;;
29848;SDS011;16728;50.832;5.590;2023-01-15T01:41:40;4.28;;;0.90;;
29848;SDS011;16728;50.832;5.590;2023-01-15T01:47:44;2.75;;;0.90;;
29848;SDS011;16728;50.832;5.590;2023-01-15T01:50:47;4.82;;;1.08;;
29848;SDS011;16728;50.832;5.590;2023-01-15T01:53:51;4.10;;;0.93;;
29848;SDS011;16728;50.832;5.590;2023-01-15T01:56:53;4.93;;;1.07;;
29848;SDS011;16728;50.832;5.590;2023-01-15T01:59:56;2.55;;;0.60;;
29848;SDS011;16728;50.832;5.590;2023-01-15T02:02:59;3.65;;;0.98;;
29848;SDS011;16728;50.832;5.590;2023-01-15T02:06:04;2.38;;;0.70;;
29848;SDS011;16728;50.832;5.590;2023-01-15T02:09:08;2.60;;;0.82;;
29848;SDS011;16728;50.832;5.590;2023-01-15T02:12:13;5.20;;;1.00;;
29848;SDS011;16728;50.832;5.590;2023-01-15T02:15:32;3.95;;;0.90;;
29848;SDS011;16728;50.832;5.590;2023-01-15T02:18:42;1.67;;;0.63;;
29848;SDS011;16728;50.832;5.590;2023-01-15T02:21:55;5.50;;;1.27;;
29848;SDS011;16728;50.832;5.590;2023-01-15T02:25:31;1.48;;;0.80;;
29848;SDS011;16728;50.832;5.590;2023-01-15T02:28:43;2.58;;;0.85;;
29848;SDS011;16728;50.832;5.590;2023-01-15T02:31:49;4.93;;;0.80;;
29848;SDS011;16728;50.832;5.590;2023-01-15T02:34:53;3.17;;;1.00;;
29848;SDS011;16728;50.832;5.590;2023-01-15T02:38:02;2.97;;;1.08;;
29848;SDS011;16728;50.832;5.590;2023-01-15T02:41:07;3.40;;;1.00;;
29848;SDS011;16728;50.832;5.590;2023-01-15T02:44:18;6.10;;;1.30;;
29848;SDS011;16728;50.832;5.590;2023-01-15T02:47:25;3.80;;;0.90;;
29848;SDS011;16728;50.832;5.590;2023-01-15T02:50:31;2.60;;;0.90;;
29848;SDS011;16728;50.832;5.590;2023-01-15T02:53:40;5.88;;;1.25;;
29848;SDS011;16728;50.832;5.590;2023-01-15T02:56:46;5.13;;;1.00;;
29848;SDS011;16728;50.832;5.590;2023-01-15T02:59:50;3.10;;;0.80;;
29848;SDS011;16728;50.832;5.590;2023-01-15T03:02:57;6.13;;;1.27;;
29848;SDS011;16728;50.832;5.590;2023-01-15T03:06:14;3.80;;;0.93;;
29848;SDS011;16728;50.832;5.590;2023-01-15T03:09:22;5.65;;;0.98;;
29848;SDS011;16728;50.832;5.590;2023-01-15T03:12:25;5.32;;;1.17;;
29848;SDS011;16728;50.832;5.590;2023-01-15T03:15:38;2.97;;;0.90;;
29848;SDS011;16728;50.832;5.590;2023-01-15T03:19:12;4.30;;;1.00;;
29848;SDS011;16728;50.832;5.590;2023-01-15T03:22:38;2.95;;;1.00;;
29848;SDS011;16728;50.832;5.590;2023-01-15T03:25:46;4.30;;;1.35;;
29848;SDS011;16728;50.832;5.590;2023-01-15T03:28:49;2.38;;;0.90;;
29848;SDS011;16728;50.832;5.590;2023-01-15T03:31:52;4.22;;;1.23;;
29848;SDS011;16728;50.832;5.590;2023-01-15T03:34:54;6.22;;;1.10;;
29848;SDS011;16728;50.832;5.590;2023-01-15T03:37:57;6.78;;;1.80;;
29848;SDS011;16728;50.832;5.590;2023-01-15T03:50:46;2.67;;;1.08;;
29848;SDS011;16728;50.832;5.590;2023-01-15T03:53:53;3.85;;;1.00;;
29848;SDS011;16728;50.832;5.590;2023-01-15T03:57:17;8.75;;;1.52;;
29848;SDS011;16728;50.832;5.590;2023-01-15T04:00:37;4.78;;;0.90;;
29848;SDS011;16728;50.832;5.590;2023-01-15T04:03:42;8.35;;;1.60;;
29848;SDS011;16728;50.832;5.590;2023-01-15T04:06:46;8.10;;;1.10;;
29848;SDS011;16728;50.832;5.590;2023-01-15T04:09:48;3.40;;;1.20;;
29848;SDS011;16728;50.832;5.590;2023-01-15T04:12:50;5.27;;;0.90;;
29848;SDS011;16728;50.832;5.590;2023-01-15T04:15:53;4.78;;;0.88;;
29848;SDS011;16728;50.832;5.590;2023-01-15T04:18:55;3.13;;;0.95;;
29848;SDS011;16728;50.832;5.590;2023-01-15T04:21:58;7.72;;;1.42;;
29848;SDS011;16728;50.832;5.590;2023-01-15T04:25:01;4.82;;;1.15;;
29848;SDS011;16728;50.832;5.590;2023-01-15T04:28:04;4.65;;;1.00;;
29848;SDS011;16728;50.832;5.590;2023-01-15T04:31:06;5.45;;;1.20;;
29848;SDS011;16728;50.832;5.590;2023-01-15T04:34:09;3.35;;;1.05;;
29848;SDS011;16728;50.832;5.590;2023-01-15T04:37:11;5.35;;;1.80;;
29848;SDS011;16728;50.832;5.590;2023-01-15T04:40:13;5.30;;;0.90;;
29848;SDS011;16728;50.832;5.590;2023-01-15T04:43:33;7.93;;;1.40;;
29848;SDS011;16728;50.832;5.590;2023-01-15T04:46:54;8.18;;;1.45;;
29848;SDS011;16728;50.832;5.590;2023-01-15T04:49:57;7.43;;;1.05;;
29848;SDS011;16728;50.832;5.590;2023-01-15T04:52:59;7.43;;;1.33;;
29848;SDS011;16728;50.832;5.590;2023-01-15T04:56:02;5.03;;;1.23;;
29848;SDS011;16728;50.832;5.590;2023-01-15T04:59:05;5.78;;;1.10;;
29848;SDS011;16728;50.832;5.590;2023-01-15T05:02:08;7.03;;;1.50;;
29848;SDS011;16728;50.832;5.590;2023-01-15T05:05:10;7.22;;;1.40;;
29848;SDS011;16728;50.832;5.590;2023-01-15T05:08:12;4.60;;;1.65;;
29848;SDS011;16728;50.832;5.590;2023-01-15T05:11:17;5.93;;;1.20;;
29848;SDS011;16728;50.832;5.590;2023-01-15T05:14:19;5.32;;;1.00;;
29848;SDS011;16728;50.832;5.590;2023-01-15T05:17:21;4.88;;;1.20;;
29848;SDS011;16728;50.832;5.590;2023-01-15T05:20:23;7.45;;;1.20;;
29848;SDS011;16728;50.832;5.590;2023-01-15T05:23:25;8.07;;;1.87;;
29848;SDS011;16728;50.832;5.590;2023-01-15T05:26:29;4.47;;;1.00;;
29848;SDS011;16728;50.832;5.590;2023-01-15T05:29:32;4.00;;;0.98;;
29848;SDS011;16728;50.832;5.590;2023-01-15T05:32:34;3.63;;;0.90;;
29848;SDS011;16728;50.832;5.590;2023-01-15T05:35:38;6.40;;;1.02;;
29848;SDS011;16728;50.832;5.590;2023-01-15T05:38:40;5.25;;;1.02;;
29848;SDS011;16728;50.832;5.590;2023-01-15T05:41:43;2.80;;;0.90;;
29848;SDS011;16728;50.832;5.590;2023-01-15T05:44:53;1.90;;;0.80;;
29848;SDS011;16728;50.832;5.590;2023-01-15T05:51:00;4.28;;;1.17;;
29848;SDS011;16728;50.832;5.590;2023-01-15T05:54:03;2.80;;;0.93;;
29848;SDS011;16728;50.832;5.590;2023-01-15T05:57:08;2.20;;;0.82;;
29848;SDS011;16728;50.832;5.590;2023-01-15T06:00:13;7.65;;;1.20;;
29848;SDS011;16728;50.832;5.590;2023-01-15T06:03:16;3.23;;;1.27;;
29848;SDS011;16728;50.832;5.590;2023-01-15T06:06:21;5.80;;;1.17;;
29848;SDS011;16728;50.832;5.590;2023-01-15T06:09:24;7.25;;;1.30;;
29848;SDS011;16728;50.832;5.590;2023-01-15T06:12:28;4.55;;;1.50;;
29848;SDS011;16728;50.832;5.590;2023-01-15T06:15:30;5.18;;;1.35;;
29848;SDS011;16728;50.832;5.590;2023-01-15T06:18:32;3.83;;;1.10;;
29848;SDS011;16728;50.832;5.590;2023-01-15T06:21:35;2.60;;;1.20;;
29848;SDS011;16728;50.832;5.590;2023-01-15T06:24:37;5.15;;;1.35;;
29848;SDS011;16728;50.832;5.590;2023-01-15T06:27:39;4.68;;;1.00;;
29848;SDS011;16728;50.832;5.590;2023-01-15T06:30:44;1.98;;;1.00;;
29848;SDS011;16728;50.832;5.590;2023-01-15T06:33:47;8.15;;;1.90;;
29848;SDS011;16728;50.832;5.590;2023-01-15T06:36:49;2.80;;;1.00;;
29848;SDS011;16728;50.832;5.590;2023-01-15T06:39:51;3.08;;;1.00;;
29848;SDS011;16728;50.832;5.590;2023-01-15T06:42:53;5.07;;;0.98;;
29848;SDS011;16728;50.832;5.590;2023-01-15T06:46:17;4.45;;;1.17;;
29848;SDS011;16728;50.832;5.590;2023-01-15T06:49:37;6.30;;;1.48;;
29848;SDS011;16728;50.832;5.590;2023-01-15T06:52:40;4.60;;;0.95;;
29848;SDS011;16728;50.832;5.590;2023-01-15T06:55:47;2.20;;;0.90;;
29848;SDS011;16728;50.832;5.590;2023-01-15T06:58:52;3.42;;;1.23;;
29848;SDS011;16728;50.832;5.590;2023-01-15T07:01:56;3.53;;;1.13;;
29848;SDS011;16728;50.832;5.590;2023-01-15T07:04:58;2.67;;;0.80;;
29848;SDS011;16728;50.832;5.590;2023-01-15T07:08:00;2.53;;;0.80;;
29848;SDS011;16728;50.832;5.590;2023-01-15T07:11:07;2.65;;;0.90;;
29848;SDS011;16728;50.832;5.590;2023-01-15T07:14:15;3.63;;;0.88;;
29848;SDS011;16728;50.832;5.590;2023-01-15T07:17:29;0.85;;;0.50;;
29848;SDS011;16728;50.832;5.590;2023-01-15T07:20:31;2.05;;;0.60;;
29848;SDS011;16728;50.832;5.590;2023-01-15T07:23:36;2.13;;;0.80;;
29848;SDS011;16728;50.832;5.590;2023-01-15T07:26:41;2.55;;;0.82;;
29848;SDS011;16728;50.832;5.590;2023-01-15T07:29:45;3.92;;;0.90;;
29848;SDS011;16728;50.832;5.590;2023-01-15T07:32:51;2.85;;;1.63;;
29848;SDS011;16728;50.832;5.590;2023-01-15T07:35:54;3.13;;;1.13;;
29848;SDS011;16728;50.832;5.590;2023-01-15T07:38:59;4.78;;;1.05;;
29848;SDS011;16728;50.832;5.590;2023-01-15T07:42:01;4.75;;;1.05;;
29848;SDS011;16728;50.832;5.590;2023-01-15T07:45:21;5.13;;;1.10;;
29848;SDS011;16728;50.832;5.590;2023-01-15T07:48:42;5.45;;;1.33;;
29848;SDS011;16728;50.832;5.590;2023-01-15T07:52:02;7.88;;;1.55;;
29848;SDS011;16728;50.832;5.590;2023-01-15T07:55:07;4.65;;;1.30;;
29848;SDS011;16728;50.832;5.590;2023-01-15T07:58:10;6.28;;;1.35;;
29848;SDS011;16728;50.832;5.590;2023-01-15T08:04:16;3.45;;;1.30;;
29848;SDS011;16728;50.832;5.590;2023-01-15T08:07:18;3.40;;;1.33;;
29848;SDS011;16728;50.832;5.590;2023-01-15T08:10:20;5.28;;;1.23;;
29848;SDS011;16728;50.832;5.590;2023-01-15T08:13:22;9.73;;;1.40;;
29848;SDS011;16728;50.832;5.590;2023-01-15T08:16:43;8.50;;;1.38;;
29848;SDS011;16728;50.832;5.590;2023-01-15T08:19:46;6.45;;;1.23;;
29848;SDS011;16728;50.832;5.590;2023-01-15T08:22:48;5.22;;;0.95;;
29848;SDS011;16728;50.832;5.590;2023-01-15T08:25:50;3.15;;;1.40;;
29848;SDS011;16728;50.832;5.590;2023-01-15T08:28:54;5.53;;;1.08;;
29848;SDS011;16728;50.832;5.590;2023-01-15T08:31:57;5.50;;;1.13;;
29848;SDS011;16728;50.832;5.590;2023-01-15T08:34:59;7.82;;;1.50;;
29848;SDS011;16728;50.832;5.590;2023-01-15T08:38:04;9.23;;;1.70;;
29848;SDS011;16728;50.832;5.590;2023-01-15T08:41:10;4.13;;;1.30;;
29848;SDS011;16728;50.832;5.590;2023-01-15T08:44:12;7.95;;;1.90;;
29848;SDS011;16728;50.832;5.590;2023-01-15T08:47:14;3.80;;;1.15;;
29848;SDS011;16728;50.832;5.590;2023-01-15T08:53:19;7.85;;;1.63;;
29848;SDS011;16728;50.832;5.590;2023-01-15T08:56:24;5.50;;;1.95;;
29848;SDS011;16728;50.832;5.590;2023-01-15T08:59:29;7.55;;;1.73;;
29848;SDS011;16728;50.832;5.590;2023-01-15T09:02:48;5.50;;;1.40;;
29848;SDS011;16728;50.832;5.590;2023-01-15T09:06:00;16.88;;;1.77;;
29848;SDS011;16728;50.832;5.590;2023-01-15T09:09:03;4.20;;;1.30;;
29848;SDS011;16728;50.832;5.590;2023-01-15T09:12:09;6.88;;;1.40;;
29848;SDS011;16728;50.832;5.590;2023-01-15T09:15:15;5.13;;;1.20;;
29848;SDS011;16728;50.832;5.590;2023-01-15T09:18:24;9.38;;;1.80;;
29848;SDS011;16728;50.832;5.590;2023-01-15T09:21:35;5.43;;;1.70;;
29848;SDS011;16728;50.832;5.590;2023-01-15T09:25:21;5.72;;;1.42;;
29848;SDS011;16728;50.832;5.590;2023-01-15T09:28:55;5.78;;;1.20;;
29848;SDS011;16728;50.832;5.590;2023-01-15T09:32:26;5.00;;;1.08;;
29848;SDS011;16728;50.832;5.590;2023-01-15T09:35:32;4.95;;;1.20;;
29848;SDS011;16728;50.832;5.590;2023-01-15T09:38:38;9.67;;;1.60;;
29848;SDS011;16728;50.832;5.590;2023-01-15T09:55:53;5.07;;;1.10;;
29848;SDS011;16728;50.832;5.590;2023-01-15T09:58:58;7.05;;;1.52;;
29848;SDS011;16728;50.832;5.590;2023-01-15T10:02:28;4.75;;;1.42;;
29848;SDS011;16728;50.832;5.590;2023-01-15T10:05:49;8.27;;;1.35;;
29848;SDS011;16728;50.832;5.590;2023-01-15T10:12:15;3.47;;;1.10;;
29848;SDS011;16728;50.832;5.590;2023-01-15T10:15:41;4.53;;;1.42;;
29848;SDS011;16728;50.832;5.590;2023-01-15T10:18:47;4.97;;;1.20;;
29848;SDS011;16728;50.832;5.590;2023-01-15T10:22:01;5.85;;;1.50;;
29848;SDS011;16728;50.832;5.590;2023-01-15T10:25:29;6.65;;;1.85;;
29848;SDS011;16728;50.832;5.590;2023-01-15T10:32:21;8.25;;;1.77;;
29848;SDS011;16728;50.832;5.590;2023-01-15T10:36:18;5.65;;;1.23;;
29848;SDS011;16728;50.832;5.590;2023-01-15T11:15:01;9.32;;;2.50;;
29848;SDS011;16728;50.832;5.590;2023-01-15T11:18:48;10.13;;;2.85;;
29848;SDS011;16728;50.832;5.590;2023-01-15T11:25:55;3.08;;;1.00;;
29848;SDS011;16728;50.832;5.590;2023-01-15T11:29:19;3.75;;;1.35;;
29848;SDS011;16728;50.832;5.590;2023-01-15T11:32:36;5.82;;;1.30;;
29848;SDS011;16728;50.832;5.590;2023-01-15T11:36:19;5.22;;;1.25;;
29848;SDS011;16728;50.832;5.590;2023-01-15T11:40:21;5.80;;;1.48;;
29848;SDS011;16728;50.832;5.590;2023-01-15T11:43:31;3.65;;;1.10;;
29848;SDS011;16728;50.832;5.590;2023-01-15T11:46:53;6.53;;;1.38;;
29848;SDS011;16728;50.832;5.590;2023-01-15T11:50:36;6.65;;;1.23;;
29848;SDS011;16728;50.832;5.590;2023-01-15T11:53:53;5.43;;;1.27;;
29848;SDS011;16728;50.832;5.590;2023-01-15T11:57:07;7.07;;;1.30;;
29848;SDS011;16728;50.832;5.590;2023-01-15T12:00:18;3.33;;;1.00;;
29848;SDS011;16728;50.832;5.590;2023-01-15T12:03:33;3.60;;;1.05;;
29848;SDS011;16728;50.832;5.590;2023-01-15T12:06:43;2.95;;;1.15;;
29848;SDS011;16728;50.832;5.590;2023-01-15T12:35:34;3.92;;;1.10;;
29848;SDS011;16728;50.832;5.590;2023-01-15T12:46:41;3.90;;;1.05;;
29848;SDS011;16728;50.832;5.590;2023-01-15T13:05:33;2.60;;;0.90;;
29848;SDS011;16728;50.832;5.590;2023-01-15T13:08:49;3.30;;;0.95;;
29848;SDS011;16728;50.832;5.590;2023-01-15T13:12:12;3.58;;;1.10;;
29848;SDS011;16728;50.832;5.590;2023-01-15T13:15:30;4.13;;;1.27;;
29848;SDS011;16728;50.832;5.590;2023-01-15T13:22:24;4.80;;;1.13;;
29848;SDS011;16728;50.832;5.590;2023-01-15T13:32:25;4.20;;;1.02;;
29848;SDS011;16728;50.832;5.590;2023-01-15T13:35:34;2.90;;;1.20;;
29848;SDS011;16728;50.832;5.590;2023-01-15T13:38:45;4.32;;;1.55;;
29848;SDS011;16728;50.832;5.590;2023-01-15T13:41:51;3.70;;;1.08;;
29848;SDS011;16728;50.832;5.590;2023-01-15T13:48:45;3.95;;;1.30;;
29848;SDS011;16728;50.832;5.590;2023-01-15T13:51:50;4.85;;;1.05;;
29848;SDS011;16728;50.832;5.590;2023-01-15T13:54:52;3.80;;;1.02;;
29848;SDS011;16728;50.832;5.590;2023-01-15T13:57:57;6.35;;;1.00;;
29848;SDS011;16728;50.832;5.590;2023-01-15T14:01:02;6.38;;;1.73;;
29848;SDS011;16728;50.832;5.590;2023-01-15T14:07:28;3.33;;;1.20;;
29848;SDS011;16728;50.832;5.590;2023-01-15T14:10:36;6.60;;;1.45;;
29848;SDS011;16728;50.832;5.590;2023-01-15T14:17:19;2.78;;;1.10;;
29848;SDS011;16728;50.832;5.590;2023-01-15T14:27:16;3.08;;;0.98;;
29848;SDS011;16728;50.832;5.590;2023-01-15T14:37:00;3.70;;;1.35;;
29848;SDS011;16728;50.832;5.590;2023-01-15T14:40:29;3.95;;;1.02;;
29848;SDS011;16728;50.832;5.590;2023-01-15T14:44:15;2.88;;;1.10;;
29848;SDS011;16728;50.832;5.590;2023-01-15T14:47:28;5.32;;;1.45;;
29848;SDS011;16728;50.832;5.590;2023-01-15T14:50:45;1.70;;;0.70;;
29848;SDS011;16728;50.832;5.590;2023-01-15T14:54:05;3.50;;;1.00;;
29848;SDS011;16728;50.832;5.590;2023-01-15T14:57:23;6.38;;;1.48;;
29848;SDS011;16728;50.832;5.590;2023-01-15T15:00:33;2.97;;;1.05;;
29848;SDS011;16728;50.832;5.590;2023-01-15T15:03:40;1.77;;;1.10;;
29848;SDS011;16728;50.832;5.590;2023-01-15T15:10:08;2.08;;;1.10;;
29848;SDS011;16728;50.832;5.590;2023-01-15T15:13:35;6.13;;;1.42;;
29848;SDS011;16728;50.832;5.590;2023-01-15T15:16:47;3.58;;;0.80;;
29848;SDS011;16728;50.832;5.590;2023-01-15T15:20:18;2.75;;;1.00;;
29848;SDS011;16728;50.832;5.590;2023-01-15T15:27:19;3.30;;;1.30;;
29848;SDS011;16728;50.832;5.590;2023-01-15T15:30:27;3.28;;;1.30;;
29848;SDS011;16728;50.832;5.590;2023-01-15T15:33:37;6.88;;;1.50;;
29848;SDS011;16728;50.832;5.590;2023-01-15T15:36:44;3.78;;;1.35;;
29848;SDS011;16728;50.832;5.590;2023-01-15T15:39:52;3.67;;;1.23;;
29848;SDS011;16728;50.832;5.590;2023-01-15T15:43:12;2.50;;;1.27;;
29848;SDS011;16728;50.832;5.590;2023-01-15T15:46:46;5.50;;;1.38;;
29848;SDS011;16728;50.832;5.590;2023-01-15T15:50:25;3.83;;;1.73;;
29848;SDS011;16728;50.832;5.590;2023-01-15T15:53:32;5.72;;;1.55;;
29848;SDS011;16728;50.832;5.590;2023-01-15T15:56:34;2.72;;;1.38;;
29848;SDS011;16728;50.832;5.590;2023-01-15T15:59:44;6.57;;;1.47;;
29848;SDS011;16728;50.832;5.590;2023-01-15T16:02:51;5.70;;;1.60;;
29848;SDS011;16728;50.832;5.590;2023-01-15T16:05:54;2.40;;;1.15;;
29848;SDS011;16728;50.832;5.590;2023-01-15T16:08:57;6.43;;;1.10;;
29848;SDS011;16728;50.832;5.590;2023-01-15T16:12:05;3.53;;;1.20;;
29848;SDS011;16728;50.832;5.590;2023-01-15T16:15:15;4.45;;;1.10;;
29848;SDS011;16728;50.832;5.590;2023-01-15T16:18:33;4.80;;;1.65;;
29848;SDS011;16728;50.832;5.590;2023-01-15T16:21:46;5.05;;;1.13;;
29848;SDS011;16728;50.832;5.590;2023-01-15T16:24:55;4.28;;;1.20;;
29848;SDS011;16728;50.832;5.590;2023-01-15T16:28:04;3.95;;;1.35;;
29848;SDS011;16728;50.832;5.590;2023-01-15T16:31:07;6.20;;;1.45;;
29848;SDS011;16728;50.832;5.590;2023-01-15T16:34:16;5.43;;;1.15;;
29848;SDS011;16728;50.832;5.590;2023-01-15T16:37:27;5.50;;;1.38;;
29848;SDS011;16728;50.832;5.590;2023-01-15T16:40:31;3.28;;;1.10;;
29848;SDS011;16728;50.832;5.590;2023-01-15T16:43:48;2.67;;;1.05;;
29848;SDS011;16728;50.832;5.590;2023-01-15T16:46:54;3.35;;;1.00;;
29848;SDS011;16728;50.832;5.590;2023-01-15T16:53:36;3.95;;;1.20;;
29848;SDS011;16728;50.832;5.590;2023-01-15T17:02:47;4.43;;;1.40;;
29848;SDS011;16728;50.832;5.590;2023-01-15T17:05:54;3.75;;;1.40;;
29848;SDS011;16728;50.832;5.590;2023-01-15T17:09:03;3.40;;;1.20;;
29848;SDS011;16728;50.832;5.590;2023-01-15T17:18:28;2.67;;;1.02;;
29848;SDS011;16728;50.832;5.590;2023-01-15T17:21:37;2.30;;;1.27;;
29848;SDS011;16728;50.832;5.590;2023-01-15T17:24:50;5.32;;;1.20;;
29848;SDS011;16728;50.832;5.590;2023-01-15T17:27:58;3.33;;;1.40;;
29848;SDS011;16728;50.832;5.590;2023-01-15T17:31:01;5.22;;;1.30;;
29848;SDS011;16728;50.832;5.590;2023-01-15T17:34:08;8.75;;;1.85;;
29848;SDS011;16728;50.832;5.590;2023-01-15T17:37:17;7.38;;;1.45;;
29848;SDS011;16728;50.832;5.590;2023-01-15T17:40:24;2.78;;;1.40;;
29848;SDS011;16728;50.832;5.590;2023-01-15T17:43:27;3.50;;;1.88;;
29848;SDS011;16728;50.832;5.590;2023-01-15T17:46:29;4.93;;;1.67;;
29848;SDS011;16728;50.832;5.590;2023-01-15T17:49:31;6.43;;;1.73;;
29848;SDS011;16728;50.832;5.590;2023-01-15T17:52:36;4.82;;;1.48;;
29848;SDS011;16728;50.832;5.590;2023-01-15T17:55:38;7.50;;;1.77;;
29848;SDS011;16728;50.832;5.590;2023-01-15T17:59:01;3.47;;;1.10;;
29848;SDS011;16728;50.832;5.590;2023-01-15T18:02:37;3.45;;;1.52;;
29848;SDS011;16728;50.832;5.590;2023-01-15T18:06:01;2.88;;;1.70;;
29848;SDS011;16728;50.832;5.590;2023-01-15T18:09:07;6.30;;;1.55;;
29848;SDS011;16728;50.832;5.590;2023-01-15T18:12:09;6.95;;;1.40;;
29848;SDS011;16728;50.832;5.590;2023-01-15T18:15:14;4.82;;;1.50;;
29848;SDS011;16728;50.832;5.590;2023-01-15T18:18:17;6.60;;;1.90;;
29848;SDS011;16728;50.832;5.590;2023-01-15T18:21:24;8.02;;;2.03;;
29848;SDS011;16728;50.832;5.590;2023-01-15T18:24:31;7.85;;;2.70;;
29848;SDS011;16728;50.832;5.590;2023-01-15T18:27:33;6.82;;;2.25;;
29848;SDS011;16728;50.832;5.590;2023-01-15T18:30:38;6.43;;;1.65;;
29848;SDS011;16728;50.832;5.590;2023-01-15T18:33:41;4.40;;;1.67;;
29848;SDS011;16728;50.832;5.590;2023-01-15T18:36:43;5.72;;;1.63;;
29848;SDS011;16728;50.832;5.590;2023-01-15T18:39:44;6.45;;;1.35;;
29848;SDS011;16728;50.832;5.590;2023-01-15T18:42:46;4.95;;;1.65;;
29848;SDS011;16728;50.832;5.590;2023-01-15T18:46:07;5.00;;;1.83;;
29848;SDS011;16728;50.832;5.590;2023-01-15T18:49:28;4.03;;;1.40;;
29848;SDS011;16728;50.832;5.590;2023-01-15T18:52:30;5.43;;;1.38;;
29848;SDS011;16728;50.832;5.590;2023-01-15T18:55:50;6.53;;;1.33;;
29848;SDS011;16728;50.832;5.590;2023-01-15T18:58:52;3.85;;;1.48;;
29848;SDS011;16728;50.832;5.590;2023-01-15T19:01:56;6.20;;;2.33;;
29848;SDS011;16728;50.832;5.590;2023-01-15T19:04:59;6.90;;;1.35;;
29848;SDS011;16728;50.832;5.590;2023-01-15T19:08:01;7.38;;;1.27;;
29848;SDS011;16728;50.832;5.590;2023-01-15T19:14:57;6.57;;;1.33;;
29848;SDS011;16728;50.832;5.590;2023-01-15T19:18:20;6.40;;;1.50;;
29848;SDS011;16728;50.832;5.590;2023-01-15T19:29:32;7.25;;;2.00;;
29848;SDS011;16728;50.832;5.590;2023-01-15T19:33:00;5.03;;;1.30;;
29848;SDS011;16728;50.832;5.590;2023-01-15T19:36:20;8.52;;;1.67;;
29848;SDS011;16728;50.832;5.590;2023-01-15T19:39:41;5.47;;;1.83;;
29848;SDS011;16728;50.832;5.590;2023-01-15T19:42:43;7.50;;;2.10;;
29848;SDS011;16728;50.832;5.590;2023-01-15T19:46:03;6.95;;;1.85;;
29848;SDS011;16728;50.832;5.590;2023-01-15T20:00:22;7.95;;;1.70;;
29848;SDS011;16728;50.832;5.590;2023-01-15T20:03:38;7.25;;;1.70;;
29848;SDS011;16728;50.832;5.590;2023-01-15T20:06:40;12.35;;;1.88;;
29848;SDS011;16728;50.832;5.590;2023-01-15T20:09:43;4.28;;;1.75;;
29848;SDS011;16728;50.832;5.590;2023-01-15T20:12:45;6.50;;;1.42;;
29848;SDS011;16728;50.832;5.590;2023-01-15T20:16:11;8.40;;;1.55;;
29848;SDS011;16728;50.832;5.590;2023-01-15T20:19:17;5.38;;;1.63;;
29848;SDS011;16728;50.832;5.590;2023-01-15T20:22:20;8.68;;;2.05;;
29848;SDS011;16728;50.832;5.590;2023-01-15T20:25:25;6.32;;;1.70;;
29848;SDS011;16728;50.832;5.590;2023-01-15T20:31:30;4.38;;;1.85;;
29848;SDS011;16728;50.832;5.590;2023-01-15T20:34:34;2.85;;;1.60;;
29848;SDS011;16728;50.832;5.590;2023-01-15T20:37:39;6.15;;;1.98;;
29848;SDS011;16728;50.832;5.590;2023-01-15T20:40:41;5.55;;;1.40;;
29848;SDS011;16728;50.832;5.590;2023-01-15T20:43:43;4.40;;;1.95;;
29848;SDS011;16728;50.832;5.590;2023-01-15T20:47:04;4.03;;;1.50;;
29848;SDS011;16728;50.832;5.590;2023-01-15T20:50:27;8.65;;;1.67;;
29848;SDS011;16728;50.832;5.590;2023-01-15T20:53:33;6.82;;;2.28;;
29848;SDS011;16728;50.832;5.590;2023-01-15T20:56:35;6.75;;;1.83;;
29848;SDS011;16728;50.832;5.590;2023-01-15T20:59:37;2.42;;;1.60;;
29848;SDS011;16728;50.832;5.590;2023-01-15T21:02:39;2.83;;;1.40;;
29848;SDS011;16728;50.832;5.590;2023-01-15T21:09:15;4.57;;;1.70;;
29848;SDS011;16728;50.832;5.590;2023-01-15T21:12:17;8.27;;;1.77;;
29848;SDS011;16728;50.832;5.590;2023-01-15T21:15:19;4.45;;;1.63;;
29848;SDS011;16728;50.832;5.590;2023-01-15T21:18:21;7.95;;;2.08;;
29848;SDS011;16728;50.832;5.590;2023-01-15T21:21:23;7.68;;;2.08;;
29848;SDS011;16728;50.832;5.590;2023-01-15T21:24:25;6.78;;;2.00;;
29848;SDS011;16728;50.832;5.590;2023-01-15T21:27:28;8.60;;;2.70;;
29848;SDS011;16728;50.832;5.590;2023-01-15T21:30:32;6.18;;;2.70;;
29848;SDS011;16728;50.832;5.590;2023-01-15T21:33:34;8.07;;;2.50;;
29848;SDS011;16728;50.832;5.590;2023-01-15T21:36:37;4.40;;;2.03;;
29848;SDS011;16728;50.832;5.590;2023-01-15T21:39:39;5.80;;;2.22;;
29848;SDS011;16728;50.832;5.590;2023-01-15T21:42:42;6.55;;;1.88;;
29848;SDS011;16728;50.832;5.590;2023-01-15T21:49:07;5.68;;;1.90;;
29848;SDS011;16728;50.832;5.590;2023-01-15T21:52:10;6.35;;;2.10;;
29848;SDS011;16728;50.832;5.590;2023-01-15T21:55:17;7.72;;;2.10;;
29848;SDS011;16728;50.832;5.590;2023-01-15T21:58:19;8.90;;;1.90;;
29848;SDS011;16728;50.832;5.590;2023-01-15T22:01:22;5.45;;;2.50;;
29848;SDS011;16728;50.832;5.590;2023-01-15T22:04:28;8.43;;;1.80;;
29848;SDS011;16728;50.832;5.590;2023-01-15T22:07:34;6.40;;;1.63;;
29848;SDS011;16728;50.832;5.590;2023-01-15T22:10:36;4.38;;;1.33;;
29848;SDS011;16728;50.832;5.590;2023-01-15T22:13:38;7.68;;;1.92;;
29848;SDS011;16728;50.832;5.590;2023-01-15T22:16:41;6.22;;;2.15;;
29848;SDS011;16728;50.832;5.590;2023-01-15T22:19:44;3.60;;;1.45;;
29848;SDS011;16728;50.832;5.590;2023-01-15T22:22:46;3.10;;;1.50;;
29848;SDS011;16728;50.832;5.590;2023-01-15T22:25:49;3.00;;;1.60;;
29848;SDS011;16728;50.832;5.590;2023-01-15T22:28:51;2.67;;;1.45;;
29848;SDS011;16728;50.832;5.590;2023-01-15T22:31:53;2.90;;;1.40;;
29848;SDS011;16728;50.832;5.590;2023-01-15T22:34:55;3.50;;;1.17;;
29848;SDS011;16728;50.832;5.590;2023-01-15T22:37:57;3.38;;;1.45;;
29848;SDS011;16728;50.832;5.590;2023-01-15T22:40:59;3.88;;;1.23;;